createdAt,value
2023-06-11T00:01:18.227Z,6.27
2023-06-11T00:03:48.093Z,6.93
2023-06-11T00:06:18.876Z,7.50
2023-06-11T00:08:45.523Z,8.10
2023-06-11T00:11:12.124Z,7.37
2023-06-11T00:13:38.637Z,7.50
2023-06-11T00:16:05.196Z,8.00
2023-06-11T00:18:31.733Z,6.70
2023-06-11T00:20:59.387Z,7.67
2023-06-11T00:23:25.967Z,7.30
2023-06-11T00:25:55.554Z,7.63
2023-06-11T00:28:22.097Z,6.90
2023-06-11T00:30:48.637Z,7.60
2023-06-11T00:33:15.480Z,7.53
2023-06-11T00:35:42.027Z,7.90
2023-06-11T00:38:08.644Z,7.70
2023-06-11T00:40:35.322Z,7.60
2023-06-11T00:43:03.916Z,7.50
2023-06-11T00:45:30.538Z,6.87
2023-06-11T00:47:57.593Z,7.17
2023-06-11T00:50:24.438Z,8.07
2023-06-11T00:52:50.992Z,7.83
2023-06-11T00:55:18.942Z,7.43
2023-06-11T00:57:45.524Z,6.80
2023-06-11T01:00:13.813Z,6.23
2023-06-11T01:02:41.218Z,6.40
2023-06-11T01:05:08.139Z,8.50
2023-06-11T01:07:35.264Z,6.80
2023-06-11T01:10:01.814Z,7.10
2023-06-11T01:12:28.343Z,6.93
2023-06-11T01:14:54.976Z,7.20
2023-06-11T01:17:23.545Z,6.97
2023-06-11T01:19:53.782Z,6.90
2023-06-11T01:22:20.312Z,7.57
2023-06-11T01:24:46.898Z,6.70
2023-06-11T01:27:14.177Z,6.67
2023-06-11T01:29:46.285Z,7.03
2023-06-11T01:32:12.810Z,7.50
2023-06-11T01:34:42.427Z,7.97
2023-06-11T01:37:13.259Z,7.10
2023-06-11T01:39:39.839Z,7.10
2023-06-11T01:42:06.716Z,7.03
2023-06-11T01:44:33.410Z,8.00
2023-06-11T01:47:00.153Z,8.20
2023-06-11T01:49:26.823Z,7.30
2023-06-11T01:51:53.382Z,8.20
2023-06-11T01:54:19.933Z,8.03
2023-06-11T01:56:46.499Z,7.70
2023-06-11T01:59:19.058Z,7.63
2023-06-11T02:01:45.754Z,6.90
2023-06-11T02:04:12.396Z,6.87
2023-06-11T02:06:39.007Z,7.50
2023-06-11T02:09:05.492Z,7.30
2023-06-11T02:11:32.108Z,7.53
2023-06-11T02:13:58.618Z,7.27
2023-06-11T02:16:25.432Z,8.77
2023-06-11T02:18:51.945Z,6.70
2023-06-11T02:21:18.576Z,7.47
2023-06-11T02:23:45.152Z,7.30
2023-06-11T02:26:11.752Z,6.73
2023-06-11T02:28:38.283Z,7.30
2023-06-11T02:31:04.794Z,7.20
2023-06-11T02:33:31.364Z,7.33
2023-06-11T02:35:57.890Z,8.23
2023-06-11T02:38:24.419Z,6.80
2023-06-11T02:40:50.947Z,7.10
2023-06-11T02:43:17.461Z,8.10
2023-06-11T02:45:44.012Z,7.27
2023-06-11T02:48:10.572Z,8.27
2023-06-11T02:50:37.079Z,8.67
2023-06-11T02:53:03.600Z,7.20
2023-06-11T02:55:30.251Z,7.03
2023-06-11T02:57:56.831Z,7.33
2023-06-11T03:00:23.878Z,6.67
2023-06-11T03:02:50.886Z,7.43
2023-06-11T03:05:17.442Z,7.47
2023-06-11T03:07:44.012Z,6.93
2023-06-11T03:10:10.572Z,6.80
2023-06-11T03:12:37.123Z,7.40
2023-06-11T03:15:03.746Z,7.67
2023-06-11T03:17:30.331Z,7.10
2023-06-11T03:19:56.928Z,7.77
2023-06-11T03:22:23.655Z,7.73
2023-06-11T03:24:50.334Z,7.33
2023-06-11T03:27:16.848Z,7.57
2023-06-11T03:29:43.401Z,7.53
2023-06-11T03:32:13.011Z,6.80
2023-06-11T03:34:39.918Z,7.47
2023-06-11T03:37:06.545Z,7.60
2023-06-11T03:39:33.124Z,7.70
2023-06-11T03:41:59.625Z,7.90
2023-06-11T03:44:26.257Z,8.07
2023-06-11T03:46:52.795Z,6.90
2023-06-11T03:49:21.956Z,7.40
2023-06-11T03:51:48.476Z,7.50
2023-06-11T03:54:15.027Z,8.10
2023-06-11T03:56:41.613Z,7.73
2023-06-11T03:59:08.225Z,7.30
2023-06-11T04:01:34.760Z,7.00
2023-06-11T04:04:01.432Z,7.67
2023-06-11T04:06:28.935Z,7.40
2023-06-11T04:08:55.583Z,7.87
2023-06-11T04:11:22.161Z,7.57
2023-06-11T04:13:51.065Z,7.93
2023-06-11T04:16:18.385Z,7.60
2023-06-11T04:18:44.950Z,6.80
2023-06-11T04:21:11.517Z,7.50
2023-06-11T04:23:38.069Z,7.67
2023-06-11T04:26:05.007Z,7.13
2023-06-11T04:28:31.655Z,7.73
2023-06-11T04:30:59.089Z,7.40
2023-06-11T04:33:37.339Z,7.27
2023-06-11T04:36:06.209Z,6.93
2023-06-11T04:38:33.021Z,7.00
2023-06-11T04:40:59.546Z,8.10
2023-06-11T04:43:26.785Z,7.40
2023-06-11T04:46:00.464Z,7.43
2023-06-11T04:48:28.344Z,7.10
2023-06-11T04:50:55.099Z,8.07
2023-06-11T04:53:28.615Z,6.57
2023-06-11T04:55:58.672Z,7.30
2023-06-11T04:58:25.190Z,7.40
2023-06-11T05:00:51.752Z,6.87
2023-06-11T05:03:19.604Z,7.30
2023-06-11T05:05:51.133Z,6.50
2023-06-11T05:08:18.376Z,6.50
2023-06-11T05:10:45.005Z,6.53
2023-06-11T05:13:11.687Z,6.43
2023-06-11T05:15:38.434Z,6.60
2023-06-11T05:18:05.105Z,7.47
2023-06-11T05:20:32.024Z,6.03
2023-06-11T05:23:00.291Z,7.37
2023-06-11T05:25:30.231Z,6.00
2023-06-11T05:27:57.450Z,6.57
2023-06-11T05:30:26.433Z,6.50
2023-06-11T05:32:53.319Z,7.20
2023-06-11T05:35:20.129Z,6.63
2023-06-11T05:37:46.739Z,6.77
2023-06-11T05:40:13.913Z,6.87
2023-06-11T05:42:40.530Z,6.97
2023-06-11T05:45:07.177Z,6.57
2023-06-11T05:47:34.340Z,6.70
2023-06-11T05:50:01.169Z,7.23
2023-06-11T05:52:27.677Z,8.03
2023-06-11T05:54:54.258Z,6.40
2023-06-11T05:57:20.914Z,6.20
2023-06-11T05:59:47.437Z,6.60
2023-06-11T06:02:14.239Z,6.70
2023-06-11T06:04:40.966Z,7.07
2023-06-11T06:07:07.776Z,7.30
2023-06-11T06:09:34.297Z,7.63
2023-06-11T06:12:00.988Z,8.63
2023-06-11T06:14:27.570Z,6.87
2023-06-11T06:16:54.231Z,6.13
2023-06-11T06:19:20.798Z,6.33
2023-06-11T06:21:47.401Z,6.97
2023-06-11T06:24:13.952Z,6.67
2023-06-11T06:26:41.998Z,6.50
2023-06-11T06:29:09.125Z,6.50
2023-06-11T06:31:37.963Z,6.57
2023-06-11T06:34:04.574Z,6.73
2023-06-11T06:36:31.947Z,7.30
2023-06-11T06:38:58.547Z,7.00
2023-06-11T06:41:25.115Z,6.53
2023-06-11T06:43:53.630Z,6.73
2023-06-11T06:46:20.651Z,6.67
2023-06-11T06:48:47.332Z,6.80
2023-06-11T06:51:13.960Z,7.50
2023-06-11T06:53:41.194Z,6.73
2023-06-11T06:56:07.769Z,6.67
2023-06-11T06:58:34.307Z,6.80
2023-06-11T07:01:01.008Z,6.67
2023-06-11T07:03:27.580Z,7.87
2023-06-11T07:05:54.246Z,6.20
2023-06-11T07:08:22.237Z,6.97
2023-06-11T07:10:48.789Z,7.07
2023-06-11T07:13:15.362Z,6.07
2023-06-11T07:15:41.939Z,6.50
2023-06-11T07:18:09.749Z,6.00
2023-06-11T07:20:36.554Z,6.67
2023-06-11T07:23:03.138Z,6.87
2023-06-11T07:25:29.706Z,6.30
2023-06-11T07:27:56.380Z,7.87
2023-06-11T07:30:23.048Z,7.60
2023-06-11T07:32:49.878Z,6.77
2023-06-11T07:35:16.496Z,6.60
2023-06-11T07:37:43.109Z,6.65
2023-06-11T07:40:09.774Z,6.78
2023-06-11T07:42:36.617Z,6.13
2023-06-11T07:45:03.376Z,6.23
2023-06-11T07:47:29.968Z,6.45
2023-06-11T07:49:56.605Z,6.72
2023-06-11T07:52:23.339Z,5.97
2023-06-11T07:54:49.875Z,5.97
2023-06-11T07:57:16.877Z,6.20
2023-06-11T07:59:44.497Z,6.20
2023-06-11T08:02:11.556Z,5.78
2023-06-11T08:04:38.266Z,6.32
2023-06-11T08:07:04.831Z,6.10
2023-06-11T08:09:31.594Z,5.47
2023-06-11T08:11:58.182Z,6.40
2023-06-11T08:14:24.853Z,6.25
2023-06-11T08:16:51.539Z,6.50
2023-06-11T08:19:18.385Z,7.13
2023-06-11T08:21:44.956Z,6.05
2023-06-11T08:24:12.034Z,6.53
2023-06-11T08:26:38.778Z,7.28
2023-06-11T08:29:05.440Z,6.53
2023-06-11T08:31:32.656Z,6.43
2023-06-11T08:33:59.234Z,6.03
2023-06-11T08:36:27.285Z,6.15
2023-06-11T08:38:53.845Z,6.47
2023-06-11T08:41:20.481Z,6.47
2023-06-11T08:43:47.361Z,5.60
2023-06-11T08:46:15.140Z,5.22
2023-06-11T08:48:41.699Z,5.85
2023-06-11T08:51:08.270Z,6.85
2023-06-11T08:53:34.855Z,6.78
2023-06-11T08:56:01.459Z,6.13
2023-06-11T08:58:28.058Z,5.35
2023-06-11T09:00:54.625Z,5.72
2023-06-11T09:03:21.441Z,5.68
2023-06-11T09:05:48.042Z,5.85
2023-06-11T09:08:14.621Z,5.53
2023-06-11T09:10:42.355Z,5.55
2023-06-11T09:13:08.891Z,6.05
2023-06-11T09:15:35.758Z,6.18
2023-06-11T09:18:02.403Z,5.25
2023-06-11T09:20:28.957Z,5.82
2023-06-11T09:22:57.100Z,5.88
2023-06-11T09:25:23.663Z,4.97
2023-06-11T09:27:50.270Z,5.97
2023-06-11T09:30:18.205Z,4.85
2023-06-11T09:32:46.241Z,5.57
2023-06-11T09:35:12.900Z,5.05
2023-06-11T09:37:39.459Z,5.20
2023-06-11T09:40:08.081Z,5.75
2023-06-11T09:42:34.944Z,5.88
2023-06-11T09:45:01.720Z,6.20
2023-06-11T09:47:28.480Z,6.70
2023-06-11T09:49:55.166Z,5.63
2023-06-11T09:52:21.781Z,5.65
2023-06-11T09:54:50.930Z,5.40
2023-06-11T09:57:17.888Z,5.43
2023-06-11T09:59:44.517Z,6.35
2023-06-11T10:02:11.112Z,5.47
2023-06-11T10:04:37.710Z,5.53
2023-06-11T10:07:04.370Z,5.78
2023-06-11T10:09:31.046Z,6.00
2023-06-11T10:11:57.801Z,5.45
2023-06-11T10:14:24.450Z,6.55
2023-06-11T10:16:51.226Z,6.32
2023-06-11T10:19:17.956Z,5.72
2023-06-11T10:21:52.553Z,5.82
2023-06-11T10:24:19.347Z,4.95
2023-06-11T10:26:48.074Z,5.43
2023-06-11T10:29:16.308Z,5.65
2023-06-11T10:31:45.259Z,5.72
2023-06-11T10:34:12.019Z,4.82
2023-06-11T10:36:38.937Z,4.68
2023-06-11T10:39:05.744Z,5.90
2023-06-11T10:41:32.358Z,5.13
2023-06-11T10:43:59.213Z,5.60
2023-06-11T10:46:32.093Z,5.32
2023-06-11T10:48:58.990Z,5.15
2023-06-11T10:51:25.561Z,5.43
2023-06-11T10:53:52.271Z,5.90
2023-06-11T10:56:18.910Z,5.72
2023-06-11T10:58:45.749Z,6.40
2023-06-11T11:01:12.731Z,4.82
2023-06-11T11:03:39.897Z,6.10
2023-06-11T11:06:06.697Z,6.45
2023-06-11T11:08:33.360Z,5.68
2023-06-11T11:11:03.284Z,6.65
2023-06-11T11:13:30.322Z,5.78
2023-06-11T11:15:59.490Z,5.53
2023-06-11T11:18:26.064Z,6.18
2023-06-11T11:20:56.073Z,6.25
2023-06-11T11:23:26.147Z,6.57
2023-06-11T11:25:53.307Z,6.45
2023-06-11T11:28:20.609Z,6.03
2023-06-11T11:30:51.016Z,5.70
2023-06-11T11:33:25.401Z,5.78
2023-06-11T11:35:52.259Z,6.05
2023-06-11T11:38:19.036Z,5.55
2023-06-11T11:40:45.806Z,5.78
2023-06-11T11:43:13.865Z,5.53
2023-06-11T11:45:41.407Z,6.35
2023-06-11T11:48:08.543Z,6.28
2023-06-11T11:50:38.095Z,5.75
2023-06-11T11:53:05.467Z,5.53
2023-06-11T11:55:32.686Z,5.45
2023-06-11T11:58:00.823Z,5.40
2023-06-11T12:00:27.584Z,5.70
2023-06-11T12:02:54.860Z,5.57
2023-06-11T12:05:23.269Z,5.32
2023-06-11T12:07:51.159Z,5.57
2023-06-11T12:10:19.751Z,5.53
2023-06-11T12:12:46.956Z,5.75
2023-06-11T12:15:14.771Z,5.82
2023-06-11T12:17:44.649Z,6.20
2023-06-11T12:20:12.830Z,5.13
2023-06-11T12:22:43.944Z,5.53
2023-06-11T12:25:11.769Z,5.68
2023-06-11T12:27:39.542Z,5.38
2023-06-11T12:30:06.568Z,5.38
2023-06-11T12:32:34.088Z,5.85
2023-06-11T12:35:02.025Z,4.97
2023-06-11T12:37:29.614Z,5.45
2023-06-11T12:39:57.241Z,5.88
2023-06-11T12:42:25.985Z,5.38
2023-06-11T12:44:53.507Z,5.20
2023-06-11T12:47:20.956Z,5.20
2023-06-11T12:49:48.250Z,5.35
2023-06-11T12:52:18.152Z,5.70
2023-06-11T12:54:49.428Z,5.43
2023-06-11T12:57:16.513Z,4.60
2023-06-11T12:59:43.580Z,4.75
2023-06-11T13:02:18.403Z,5.15
2023-06-11T13:04:50.477Z,4.78
2023-06-11T13:07:18.284Z,5.85
2023-06-11T13:09:45.554Z,5.78
2023-06-11T13:12:12.209Z,5.00
2023-06-11T13:14:38.899Z,4.93
2023-06-11T13:17:05.539Z,4.85
2023-06-11T13:19:32.197Z,4.63
2023-06-11T13:21:58.850Z,4.50
2023-06-11T13:27:33.158Z,5.70
2023-06-11T13:30:02.391Z,4.95
2023-06-11T13:32:29.364Z,4.68
2023-06-11T13:34:56.553Z,5.75
2023-06-11T13:37:24.573Z,4.72
2023-06-11T13:39:51.353Z,4.68
2023-06-11T13:42:18.118Z,5.43
2023-06-11T13:44:45.914Z,5.10
2023-06-11T13:47:13.383Z,5.00
2023-06-11T13:49:40.193Z,5.07
2023-06-11T13:52:07.137Z,5.47
2023-06-11T13:54:34.298Z,5.03
2023-06-11T13:57:01.364Z,5.40
2023-06-11T13:59:28.369Z,5.22
2023-06-11T14:01:56.221Z,4.90
2023-06-11T14:04:23.538Z,4.90
2023-06-11T14:06:50.243Z,4.60
2023-06-11T14:09:16.897Z,4.82
2023-06-11T14:11:43.517Z,4.72
2023-06-11T14:14:13.162Z,4.85
2023-06-11T14:16:40.601Z,4.65
2023-06-11T14:19:09.043Z,5.38
2023-06-11T14:21:36.357Z,4.65
2023-06-11T14:24:02.994Z,5.00
2023-06-11T14:26:29.752Z,4.70
2023-06-11T14:28:56.606Z,4.38
2023-06-11T14:31:23.466Z,5.20
2023-06-11T14:33:50.787Z,5.15
2023-06-11T14:36:17.475Z,4.65
2023-06-11T14:38:44.291Z,4.97
2023-06-11T14:41:12.040Z,4.53
2023-06-11T14:43:39.249Z,3.72
2023-06-11T14:46:06.014Z,3.85
2023-06-11T14:48:32.703Z,5.60
2023-06-11T14:50:59.472Z,4.93
2023-06-11T14:53:26.288Z,4.72
2023-06-11T14:55:52.927Z,4.40
2023-06-11T14:58:19.538Z,4.47
2023-06-11T15:00:46.221Z,4.10
2023-06-11T15:03:14.074Z,4.13
2023-06-11T15:05:41.143Z,4.32
2023-06-11T15:08:08.081Z,5.28
2023-06-11T15:10:34.971Z,4.65
2023-06-11T15:13:02.967Z,4.78
2023-06-11T15:15:29.729Z,4.03
2023-06-11T15:17:56.746Z,4.03
2023-06-11T15:20:23.658Z,4.43
2023-06-11T15:22:50.552Z,4.70
2023-06-11T15:25:17.163Z,4.68
2023-06-11T15:27:43.825Z,5.35
2023-06-11T15:30:10.749Z,4.38
2023-06-11T15:32:37.972Z,4.38
2023-06-11T15:35:04.658Z,4.68
2023-06-11T15:37:31.358Z,4.35
2023-06-11T15:39:58.035Z,5.07
2023-06-11T15:42:24.651Z,4.10
2023-06-11T15:44:51.356Z,4.93
2023-06-11T15:47:18.444Z,4.32
2023-06-11T15:49:45.413Z,4.10
2023-06-11T15:52:12.047Z,4.10
2023-06-11T15:54:38.830Z,4.57
2023-06-11T15:57:05.661Z,3.83
2023-06-11T15:59:32.379Z,4.55
2023-06-11T16:01:59.418Z,4.20
2023-06-11T16:04:26.866Z,4.40
2023-06-11T16:06:53.877Z,3.67
2023-06-11T16:09:20.521Z,3.70
2023-06-11T16:11:47.290Z,4.68
2023-06-11T16:14:15.959Z,3.72
2023-06-11T16:16:42.844Z,4.40
2023-06-11T16:19:09.670Z,4.28
2023-06-11T16:21:36.415Z,4.57
2023-06-11T16:24:03.178Z,4.30
2023-06-11T16:26:30.069Z,4.40
2023-06-11T16:28:56.729Z,4.30
2023-06-11T16:31:23.549Z,4.32
2023-06-11T16:33:58.423Z,4.82
2023-06-11T16:36:26.087Z,3.95
2023-06-11T16:38:52.702Z,3.80
2023-06-11T16:41:19.613Z,3.67
2023-06-11T16:43:46.481Z,3.95
2023-06-11T16:46:13.144Z,5.00
2023-06-11T16:48:39.911Z,3.90
2023-06-11T16:51:06.647Z,4.28
2023-06-11T16:53:33.450Z,4.10
2023-06-11T16:56:00.116Z,4.03
2023-06-11T16:58:27.267Z,4.40
2023-06-11T17:00:53.980Z,4.30
2023-06-11T17:03:20.793Z,3.88
2023-06-11T17:05:47.582Z,3.78
2023-06-11T17:08:14.360Z,3.80
2023-06-11T17:10:40.995Z,3.72
2023-06-11T17:13:07.779Z,4.15
2023-06-11T17:15:34.378Z,4.03
2023-06-11T17:18:01.359Z,3.90
2023-06-11T17:20:28.179Z,3.70
2023-06-11T17:22:54.901Z,4.40
2023-06-11T17:25:24.412Z,4.30
2023-06-11T17:27:51.414Z,3.92
2023-06-11T17:30:18.047Z,3.92
2023-06-11T17:32:45.114Z,3.75
2023-06-11T17:35:12.102Z,3.47
2023-06-11T17:37:39.484Z,3.08
2023-06-11T17:40:06.772Z,4.63
2023-06-11T17:42:34.278Z,3.90
2023-06-11T17:45:01.389Z,3.20
2023-06-11T17:47:28.234Z,3.60
2023-06-11T20:19:22.490Z,3.80
2023-06-11T20:21:49.410Z,3.50
2023-06-11T20:24:16.140Z,4.17
2023-06-11T20:26:44.052Z,4.10
2023-06-11T20:29:12.473Z,3.80
2023-06-11T20:31:39.102Z,4.03
